Terminal Aerodrome Forecast
Issued by NWS

Home | Current Version | Previous Version | Text Only | Print | Product List | Glossary On
Versions: 1 2 3 4 5 6 7 8 9 10 11 12 13 14 15 16 17 18 19 20 21 22 23 24 25
265
FTUS44 KOUN 241720
TAFGAG
TAF
KGAG 241720Z 2418/2518 20017G27KT P6SM FEW020 SCT030
     FM242200 18017G30KT P6SM SCT035
      TEMPO 2423/2503 5SM -TSRA BR BKN009CB
     FM250300 16016G25KT P6SM BKN030
     FM251000 19013G19KT P6SM SCT250=

USA.gov is the U.S. government's official web portal to all federal, state and local government web resources and services.